Time;durP1;ratioP1;P1;durP2;ratioP2;P2;SDS_P1;SDS_P2;PMS_P1;PMS_P2;Temp;Humidity;BMP_temperature;BMP_pressure;BME280_temperature;BME280_humidity;BME280_pressure;Samples;Min_cycle;Max_cycle;Signal;HPM_P1;HPM_P2
2022/01/30 00:00:14;;;;;;;0.90;0.90;;;7.80;99.90;;;;;;5074853;28;20206;-66
2022/01/30 00:02:41;;;;;;;0.90;0.90;;;7.80;99.90;;;;;;5074276;28;20203;-66
2022/01/30 00:05:09;;;;;;;1.30;0.88;;;7.80;99.90;;;;;;5075064;28;20268;-66
2022/01/30 00:07:36;;;;;;;1.10;1.00;;;7.80;99.90;;;;;;5074468;28;20281;-66
2022/01/30 00:10:05;;;;;;;1.20;1.10;;;7.80;99.90;;;;;;5074359;28;20681;-65
2022/01/30 00:12:41;;;;;;;0.90;0.90;;;7.80;99.90;;;;;;5074674;28;20198;-66
2022/01/30 00:15:09;;;;;;;2.03;1.08;;;7.80;99.90;;;;;;5075134;28;20222;-66
2022/01/30 00:17:43;;;;;;;1.15;1.10;;;7.80;99.90;;;;;;5074197;28;20207;-67
2022/01/30 00:20:17;;;;;;;1.05;1.02;;;7.80;99.90;;;;;;5074432;28;20688;-67
2022/01/30 00:22:49;;;;;;;1.33;1.23;;;7.80;99.90;;;;;;5074374;28;20230;-67
2022/01/30 00:25:19;;;;;;;1.23;1.13;;;7.90;99.90;;;;;;5074242;28;20241;-67
2022/01/30 00:27:50;;;;;;;1.00;1.00;;;7.90;99.90;;;;;;5074123;28;20238;-67
2022/01/30 00:30:18;;;;;;;0.70;0.70;;;8.00;99.90;;;;;;5073868;28;20622;-67
2022/01/30 00:32:46;;;;;;;1.30;1.20;;;8.00;99.90;;;;;;5074036;28;20676;-65
2022/01/30 00:35:13;;;;;;;1.30;1.17;;;8.00;99.90;;;;;;5074289;28;20313;-66
2022/01/30 00:37:43;;;;;;;1.17;1.17;;;8.00;99.90;;;;;;5074051;28;20645;-66
2022/01/30 00:40:10;;;;;;;1.05;1.00;;;8.00;99.90;;;;;;5074057;28;20203;-66
2022/01/30 00:42:37;;;;;;;1.33;1.23;;;8.00;99.90;;;;;;5073739;28;20297;-65
2022/01/30 00:45:05;;;;;;;1.23;1.10;;;8.00;99.90;;;;;;5073915;28;20235;-65
2022/01/30 00:47:32;;;;;;;1.15;1.02;;;8.00;99.90;;;;;;5073832;28;20568;-66
2022/01/30 00:50:00;;;;;;;1.20;1.13;;;8.00;99.90;;;;;;5073903;28;20252;-66
2022/01/30 00:52:27;;;;;;;1.23;1.00;;;8.00;99.90;;;;;;5073896;28;20288;-65
2022/01/30 00:54:54;;;;;;;0.90;0.90;;;8.10;99.90;;;;;;5073874;28;20631;-65
2022/01/30 00:57:21;;;;;;;1.40;1.20;;;8.10;99.90;;;;;;5073619;28;20298;-65
2022/01/30 00:59:49;;;;;;;1.75;1.20;;;8.10;99.90;;;;;;5073465;28;20245;-66
2022/01/30 01:02:17;;;;;;;1.00;1.00;;;8.10;99.90;;;;;;5073292;28;20222;-66
2022/01/30 01:04:44;;;;;;;1.30;1.20;;;8.10;99.90;;;;;;5074694;28;20230;-69
2022/01/30 01:07:18;;;;;;;1.00;0.98;;;8.10;99.90;;;;;;5074784;28;20542;-69
2022/01/30 01:09:53;;;;;;;1.30;1.20;;;8.20;99.90;;;;;;5074773;28;20252;-67
2022/01/30 01:23:26;;;;;;;1.50;1.40;;;8.30;99.90;;;;;;5058570;28;20740;-67
2022/01/30 01:25:53;;;;;;;1.35;1.25;;;8.30;99.90;;;;;;5061503;28;20693;-68
2022/01/30 01:28:20;;;;;;;0.98;0.98;;;8.30;99.90;;;;;;5063511;28;20195;-68
2022/01/30 01:30:47;;;;;;;1.30;1.20;;;8.30;99.90;;;;;;5063164;28;20278;-68
2022/01/30 01:33:14;;;;;;;1.30;1.20;;;8.30;99.90;;;;;;5061811;28;20286;-68
2022/01/30 01:35:41;;;;;;;1.90;1.20;;;8.30;99.90;;;;;;5061885;28;20284;-68
2022/01/30 01:38:11;;;;;;;1.40;1.30;;;8.30;99.90;;;;;;5062199;28;20620;-68
2022/01/30 01:40:39;;;;;;;2.47;1.40;;;8.30;99.90;;;;;;5061699;28;20595;-68
2022/01/30 01:43:06;;;;;;;1.52;1.30;;;8.40;99.90;;;;;;5062253;28;20242;-68
2022/01/30 01:45:36;;;;;;;1.00;1.00;;;8.30;99.90;;;;;;5061208;28;20299;-68
2022/01/30 01:48:10;;;;;;;2.00;1.30;;;8.30;99.90;;;;;;5063026;28;20199;-68
2022/01/30 01:50:43;;;;;;;2.05;1.35;;;8.30;99.90;;;;;;5061670;28;20296;-68
2022/01/30 01:53:12;;;;;;;1.48;1.38;;;8.30;99.90;;;;;;5061678;28;20301;-68
2022/01/30 01:55:41;;;;;;;1.40;1.30;;;8.30;99.90;;;;;;5063316;28;20221;-68
2022/01/30 01:58:09;;;;;;;1.50;1.40;;;8.30;99.90;;;;;;5062968;28;20602;-68
2022/01/30 02:00:36;;;;;;;1.45;1.35;;;8.20;99.90;;;;;;5061342;28;20196;-68
2022/01/30 02:03:04;;;;;;;1.80;1.50;;;8.20;99.90;;;;;;5062662;28;20215;-68
2022/01/30 02:05:34;;;;;;;1.65;1.55;;;8.20;99.90;;;;;;5060890;28;20251;-68
2022/01/30 02:10:53;;;;;;;1.98;1.38;;;8.20;99.90;;;;;;5053735;28;20572;-68
2022/01/30 02:13:54;;;;;;;1.35;1.25;;;8.10;99.90;;;;;;5053973;28;20203;-68
2022/01/30 02:25:01;;;;;;;1.30;1.20;;;8.00;99.90;;;;;;5031342;28;20219;-68
2022/01/30 02:27:33;;;;;;;1.75;1.40;;;8.00;99.90;;;;;;5060268;28;20731;-68
2022/01/30 02:30:00;;;;;;;1.42;1.33;;;8.10;99.90;;;;;;5060156;28;20207;-68
2022/01/30 02:32:28;;;;;;;1.40;1.30;;;8.00;99.90;;;;;;5060580;28;20199;-68
2022/01/30 02:34:55;;;;;;;1.65;1.50;;;8.00;99.90;;;;;;5060749;28;20281;-68
2022/01/30 02:37:21;;;;;;;2.05;1.73;;;8.10;99.90;;;;;;5061213;28;20203;-68
2022/01/30 02:39:48;;;;;;;1.20;1.20;;;8.10;99.90;;;;;;5059828;28;20210;-68
2022/01/30 02:42:20;;;;;;;1.40;1.30;;;8.20;99.90;;;;;;5060104;28;20220;-67
2022/01/30 02:44:52;;;;;;;1.60;1.50;;;8.20;99.90;;;;;;5060355;28;20227;-68
2022/01/30 02:47:27;;;;;;;2.35;1.42;;;8.20;99.90;;;;;;5060550;28;20183;-68
2022/01/30 02:50:17;;;;;;;1.45;1.35;;;8.20;99.90;;;;;;5060380;28;20302;-67
2022/01/30 02:52:54;;;;;;;1.40;1.30;;;8.20;99.90;;;;;;5060155;28;20653;-68
2022/01/30 02:55:21;;;;;;;1.25;1.15;;;8.30;99.90;;;;;;5060766;28;20262;-68
2022/01/30 02:57:49;;;;;;;1.45;1.33;;;8.30;99.90;;;;;;5060699;28;20285;-68
2022/01/30 03:00:17;;;;;;;1.20;1.20;;;8.30;99.90;;;;;;5060318;28;20226;-67
2022/01/30 03:02:44;;;;;;;2.03;1.80;;;8.30;99.90;;;;;;5060105;28;20310;-68
2022/01/30 03:05:11;;;;;;;1.80;1.70;;;8.30;99.90;;;;;;5060350;28;20614;-68
2022/01/30 03:07:38;;;;;;;2.90;2.10;;;8.30;99.90;;;;;;5060278;28;20203;-68
2022/01/30 03:10:05;;;;;;;1.90;1.73;;;8.20;99.90;;;;;;5060163;28;20576;-68
2022/01/30 03:12:32;;;;;;;3.67;2.25;;;8.30;99.90;;;;;;5059956;28;20196;-68
2022/01/30 03:15:00;;;;;;;2.45;2.17;;;8.30;99.90;;;;;;5060619;28;20227;-68
2022/01/30 03:17:27;;;;;;;3.00;2.30;;;8.40;99.90;;;;;;5060037;28;20246;-68
2022/01/30 03:19:54;;;;;;;2.15;1.70;;;8.50;99.90;;;;;;5060168;28;20214;-68
2022/01/30 03:22:21;;;;;;;1.50;1.40;;;8.60;99.90;;;;;;5060314;28;20681;-68
2022/01/30 03:24:47;;;;;;;2.45;1.70;;;8.60;99.90;;;;;;5060052;28;20224;-68
2022/01/30 03:27:14;;;;;;;2.08;1.88;;;8.70;99.90;;;;;;5060494;28;20199;-68
2022/01/30 03:29:49;;;;;;;2.53;1.60;;;8.70;99.90;;;;;;5060070;28;20207;-67
2022/01/30 03:32:17;;;;;;;2.17;1.48;;;8.70;99.90;;;;;;5060112;28;20552;-67
2022/01/30 03:34:44;;;;;;;1.90;1.80;;;8.70;99.90;;;;;;5059974;28;20314;-68
2022/01/30 03:37:11;;;;;;;2.25;2.05;;;8.70;99.90;;;;;;5057303;28;20300;-68
2022/01/30 03:39:38;;;;;;;2.13;1.58;;;8.70;99.90;;;;;;5056732;28;20203;-67
2022/01/30 03:42:06;;;;;;;1.95;1.50;;;8.70;99.90;;;;;;5056866;28;20573;-68
2022/01/30 03:44:33;;;;;;;1.98;1.40;;;8.70;99.90;;;;;;5057206;28;20606;-68
2022/01/30 03:47:00;;;;;;;1.70;1.60;;;8.70;99.90;;;;;;5057374;28;20211;-68
2022/01/30 03:49:28;;;;;;;1.52;1.42;;;8.70;99.90;;;;;;5056694;28;20213;-68
2022/01/30 03:51:55;;;;;;;1.40;1.30;;;8.80;99.90;;;;;;5056579;28;20210;-68
2022/01/30 03:54:22;;;;;;;1.98;1.30;;;8.80;99.90;;;;;;5056512;28;20318;-68
2022/01/30 03:56:48;;;;;;;2.78;1.65;;;8.80;99.90;;;;;;5056231;28;20203;-68
2022/01/30 03:59:15;;;;;;;1.77;1.67;;;8.80;99.90;;;;;;5056145;28;20667;-68
2022/01/30 04:01:42;;;;;;;1.60;1.50;;;8.80;99.90;;;;;;5055791;28;20646;-68
2022/01/30 04:04:09;;;;;;;2.90;2.15;;;8.80;99.90;;;;;;5056288;28;20257;-68
2022/01/30 04:06:38;;;;;;;2.67;2.10;;;8.70;99.90;;;;;;5056664;28;20210;-68
2022/01/30 04:09:05;;;;;;;2.65;2.20;;;8.70;99.90;;;;;;5056406;28;20210;-68
2022/01/30 04:11:32;;;;;;;2.35;2.15;;;8.80;99.90;;;;;;5055793;28;20207;-68
2022/01/30 04:13:59;;;;;;;5.47;1.85;;;8.70;99.90;;;;;;5055724;28;20223;-68
2022/01/30 04:16:26;;;;;;;2.90;2.05;;;8.70;99.90;;;;;;5056211;28;20203;-68
2022/01/30 04:18:54;;;;;;;5.85;2.38;;;8.80;99.90;;;;;;5055971;28;20247;-67
2022/01/30 04:21:21;;;;;;;2.97;2.40;;;8.80;99.90;;;;;;5055494;28;20200;-68
2022/01/30 04:23:49;;;;;;;3.40;2.15;;;8.80;99.90;;;;;;5055608;28;20219;-68
2022/01/30 04:26:16;;;;;;;2.83;2.38;;;8.80;99.90;;;;;;5055762;28;20207;-68
2022/01/30 04:28:43;;;;;;;4.60;2.70;;;8.80;99.90;;;;;;5055608;28;20646;-68
2022/01/30 04:31:10;;;;;;;5.53;2.40;;;8.90;99.90;;;;;;5055569;28;20239;-68
2022/01/30 04:33:38;;;;;;;2.92;2.60;;;8.80;99.90;;;;;;5055849;28;20199;-67
2022/01/30 04:36:09;;;;;;;3.08;2.65;;;8.90;99.90;;;;;;5056382;28;20549;-68
2022/01/30 04:38:51;;;;;;;3.92;3.22;;;8.80;99.90;;;;;;5055394;28;20612;-68
2022/01/30 04:41:47;;;;;;;4.63;3.08;;;8.80;99.90;;;;;;5055498;28;20203;-68
2022/01/30 04:56:10;;;;;;;3.35;2.40;;;8.50;99.90;;;;;;5054943;28;20242;-68
2022/01/30 04:58:32;;;;;;;5.53;3.70;;;8.50;99.90;;;;;;5055203;28;20204;-68
2022/01/30 05:01:10;;;;;;;4.53;3.15;;;8.40;99.90;;;;;;5054883;28;20204;-68
2022/01/30 05:03:51;;;;;;;5.85;3.70;;;8.40;99.90;;;;;;5055121;28;20238;-68
2022/01/30 05:06:29;;;;;;;7.57;3.80;;;8.40;99.90;;;;;;5055183;28;20271;-68
2022/01/30 05:08:56;;;;;;;5.05;3.50;;;8.40;99.90;;;;;;5055091;28;20285;-68
2022/01/30 05:11:23;;;;;;;7.43;3.80;;;8.40;99.90;;;;;;5054747;28;20294;-68
2022/01/30 05:13:52;;;;;;;6.97;3.80;;;8.30;99.90;;;;;;5055222;28;20203;-68
2022/01/30 05:16:22;;;;;;;5.80;2.80;;;8.30;99.90;;;;;;5054938;28;20211;-68
2022/01/30 05:18:50;;;;;;;7.70;4.10;;;8.30;99.90;;;;;;5055240;28;20301;-67
2022/01/30 05:21:18;;;;;;;5.85;3.80;;;8.40;99.90;;;;;;5054863;28;20204;-68
2022/01/30 05:23:46;;;;;;;7.32;3.70;;;8.40;99.90;;;;;;5054840;28;20223;-68
2022/01/30 05:26:13;;;;;;;14.25;6.15;;;8.40;99.90;;;;;;5055253;28;20203;-67
2022/01/30 05:28:41;;;;;;;5.25;3.50;;;8.50;99.90;;;;;;5054661;28;20290;-67
2022/01/30 05:31:09;;;;;;;6.53;3.80;;;8.50;99.90;;;;;;5054289;28;20668;-68
2022/01/30 05:33:36;;;;;;;8.23;5.00;;;8.50;99.90;;;;;;5054656;28;20195;-68
2022/01/30 05:36:04;;;;;;;5.95;4.63;;;8.40;99.90;;;;;;5054180;28;20203;-68
2022/01/30 05:38:31;;;;;;;6.45;3.60;;;8.40;99.90;;;;;;5054870;28;20210;-68
2022/01/30 05:40:59;;;;;;;4.85;3.50;;;8.30;99.90;;;;;;5054188;28;20233;-67
2022/01/30 05:43:29;;;;;;;6.53;3.08;;;8.40;99.90;;;;;;5054288;28;20310;-68
2022/01/30 05:46:08;;;;;;;9.68;3.25;;;8.40;99.90;;;;;;5054842;28;20227;-68
2022/01/30 05:48:37;;;;;;;8.68;4.10;;;8.40;99.90;;;;;;5054968;28;20653;-68
2022/01/30 05:51:03;;;;;;;6.10;3.63;;;8.30;99.90;;;;;;5054087;28;20290;-68
2022/01/30 05:53:31;;;;;;;7.65;4.45;;;8.40;99.90;;;;;;5053871;28;20290;-68
2022/01/30 05:55:58;;;;;;;5.97;4.38;;;8.40;99.90;;;;;;5054290;28;20701;-68
2022/01/30 05:58:25;;;;;;;6.82;4.10;;;8.40;99.90;;;;;;5054667;28;20203;-68
2022/01/30 06:00:51;;;;;;;7.35;4.80;;;8.40;99.90;;;;;;5053392;28;20688;-68
2022/01/30 06:03:18;;;;;;;11.77;5.85;;;8.40;99.90;;;;;;5054404;28;20223;-68
2022/01/30 06:05:48;;;;;;;6.75;3.67;;;8.40;99.90;;;;;;5054671;28;20219;-68
2022/01/30 06:08:16;;;;;;;9.18;3.85;;;8.40;99.90;;;;;;5055098;28;20208;-67
2022/01/30 06:10:43;;;;;;;5.72;3.80;;;8.30;99.90;;;;;;5054357;28;20261;-68
2022/01/30 06:13:09;;;;;;;8.93;4.10;;;8.30;99.90;;;;;;5054311;28;20212;-68
2022/01/30 06:15:36;;;;;;;6.13;2.70;;;8.30;99.90;;;;;;5054105;28;20227;-68
2022/01/30 06:18:03;;;;;;;5.47;3.85;;;8.30;99.90;;;;;;5053902;28;20591;-68
2022/01/30 06:20:30;;;;;;;3.13;2.40;;;8.30;99.90;;;;;;5053486;28;20657;-67
2022/01/30 06:22:58;;;;;;;8.65;3.97;;;8.30;99.90;;;;;;5053950;28;20223;-68
2022/01/30 06:25:25;;;;;;;2.67;2.47;;;8.30;99.90;;;;;;5054165;28;20233;-68
2022/01/30 06:27:52;;;;;;;9.82;4.03;;;8.20;99.90;;;;;;5054040;28;20218;-67
2022/01/30 06:30:21;;;;;;;11.13;4.22;;;8.20;99.90;;;;;;5053878;28;20206;-68
2022/01/30 06:32:50;;;;;;;5.57;3.50;;;8.20;99.90;;;;;;5054305;28;20238;-68
2022/01/30 06:35:16;;;;;;;8.20;4.32;;;8.20;99.90;;;;;;5053851;28;20227;-68
2022/01/30 06:37:43;;;;;;;3.75;3.15;;;8.20;99.90;;;;;;5053896;28;20289;-68
2022/01/30 06:40:13;;;;;;;7.70;4.07;;;8.20;99.90;;;;;;5053513;28;20203;-67
2022/01/30 06:42:40;;;;;;;6.80;3.97;;;8.10;99.90;;;;;;5054138;28;20289;-67
2022/01/30 06:45:08;;;;;;;5.78;3.28;;;8.10;99.90;;;;;;5053493;28;20713;-67
2022/01/30 06:47:41;;;;;;;5.43;3.35;;;8.10;99.90;;;;;;5053629;28;20213;-68
2022/01/30 06:50:12;;;;;;;4.80;3.60;;;8.00;99.90;;;;;;5053622;28;20203;-67
2022/01/30 06:52:39;;;;;;;7.43;3.45;;;7.90;99.90;;;;;;5053885;28;20199;-68
2022/01/30 06:55:07;;;;;;;8.15;3.80;;;7.90;99.90;;;;;;5053865;28;20306;-68
2022/01/30 06:57:41;;;;;;;6.47;3.30;;;7.90;99.90;;;;;;5054157;28;20549;-68
2022/01/30 07:00:09;;;;;;;4.03;3.63;;;7.80;99.90;;;;;;5053493;28;20188;-68
2022/01/30 07:02:36;;;;;;;10.63;3.90;;;7.80;99.90;;;;;;5053289;28;20662;-68
2022/01/30 07:05:04;;;;;;;9.48;4.05;;;7.80;99.90;;;;;;5053945;28;20559;-68
2022/01/30 07:07:30;;;;;;;7.30;4.32;;;7.70;99.90;;;;;;5053729;28;20199;-67
2022/01/30 07:09:57;;;;;;;7.43;4.00;;;7.70;99.90;;;;;;5053972;28;20204;-67
2022/01/30 07:12:24;;;;;;;3.60;3.22;;;7.70;99.90;;;;;;5055934;28;20203;-68
2022/01/30 07:14:52;;;;;;;9.45;3.72;;;7.60;99.90;;;;;;5057323;28;20310;-67
2022/01/30 07:17:19;;;;;;;8.65;3.65;;;7.60;99.90;;;;;;5057293;28;20234;-67
2022/01/30 07:19:46;;;;;;;6.68;3.85;;;7.60;99.90;;;;;;5057362;28;20254;-67
2022/01/30 07:22:13;;;;;;;6.00;3.80;;;7.60;99.90;;;;;;5056988;28;20290;-67
2022/01/30 07:24:39;;;;;;;4.43;2.70;;;7.50;99.90;;;;;;5057439;28;20313;-68
2022/01/30 07:27:06;;;;;;;7.55;3.50;;;7.50;99.90;;;;;;5057187;28;20204;-68
2022/01/30 07:29:33;;;;;;;6.05;4.07;;;7.40;99.90;;;;;;5057117;28;20259;-67
2022/01/30 07:32:01;;;;;;;6.95;3.70;;;7.40;99.90;;;;;;5056835;28;20207;-68
2022/01/30 07:34:28;;;;;;;3.97;2.95;;;7.50;99.90;;;;;;5056930;28;20241;-67
2022/01/30 07:36:57;;;;;;;5.57;3.97;;;7.40;99.90;;;;;;5057148;28;20294;-68
2022/01/30 07:39:27;;;;;;;9.82;4.43;;;7.40;99.90;;;;;;5057131;28;20207;-67
2022/01/30 07:42:01;;;;;;;5.97;3.83;;;7.40;99.90;;;;;;5056474;28;20249;-67
2022/01/30 07:44:27;;;;;;;7.60;3.70;;;7.40;99.90;;;;;;5056575;28;20269;-67
2022/01/30 07:46:54;;;;;;;7.90;4.80;;;7.40;99.90;;;;;;5057274;28;20209;-67
2022/01/30 07:49:23;;;;;;;9.77;4.75;;;7.40;99.90;;;;;;5057102;28;20293;-68
2022/01/30 07:51:50;;;;;;;11.77;6.05;;;7.50;99.90;;;;;;5056509;28;20204;-67
2022/01/30 07:54:17;;;;;;;8.70;4.90;;;7.50;99.90;;;;;;5056727;28;20225;-67
2022/01/30 07:56:43;;;;;;;7.10;4.38;;;7.50;99.90;;;;;;5056717;28;20294;-67
2022/01/30 07:59:10;;;;;;;9.25;5.25;;;7.60;99.90;;;;;;5056525;28;20294;-67
2022/01/30 08:01:37;;;;;;;9.07;4.55;;;7.60;99.90;;;;;;5056689;28;20206;-68
2022/01/30 08:04:06;;;;;;;7.25;4.35;;;7.60;99.90;;;;;;5056723;28;20318;-67
2022/01/30 08:06:35;;;;;;;9.52;4.65;;;7.60;99.90;;;;;;5056358;28;20665;-67
2022/01/30 08:09:02;;;;;;;5.20;3.15;;;7.60;99.90;;;;;;5056838;28;20628;-67
2022/01/30 08:11:29;;;;;;;8.57;5.25;;;7.60;99.90;;;;;;5056227;28;20599;-67
2022/01/30 08:13:56;;;;;;;3.25;2.72;;;7.50;99.90;;;;;;5055967;28;20318;-67
2022/01/30 08:16:25;;;;;;;12.85;4.50;;;7.40;99.90;;;;;;5056171;28;20203;-68
2022/01/30 08:18:52;;;;;;;10.23;4.30;;;7.40;99.90;;;;;;5056357;28;20220;-68
2022/01/30 08:21:19;;;;;;;4.97;3.85;;;7.40;99.90;;;;;;5055984;28;20214;-68
2022/01/30 08:23:48;;;;;;;5.80;4.32;;;7.50;99.90;;;;;;5055701;28;20220;-68
2022/01/30 08:26:14;;;;;;;5.65;3.60;;;7.50;99.90;;;;;;5056271;28;20211;-68
2022/01/30 08:28:41;;;;;;;6.63;4.30;;;7.50;99.90;;;;;;5055973;28;20277;-68
2022/01/30 08:31:08;;;;;;;11.65;4.20;;;7.50;99.90;;;;;;5055501;28;20680;-68
2022/01/30 08:33:35;;;;;;;14.93;4.45;;;7.50;99.90;;;;;;5055908;28;20204;-68
2022/01/30 08:36:02;;;;;;;10.73;3.72;;;7.40;99.90;;;;;;5056109;28;20199;-68
2022/01/30 08:38:28;;;;;;;8.32;3.75;;;7.50;99.90;;;;;;5056706;28;20204;-68
2022/01/30 08:40:57;;;;;;;7.82;3.95;;;7.50;99.90;;;;;;5055583;28;20213;-68
2022/01/30 08:43:23;;;;;;;6.45;4.50;;;7.40;99.90;;;;;;5055747;28;20238;-68
2022/01/30 08:45:50;;;;;;;6.50;3.80;;;7.50;99.90;;;;;;5056250;28;20709;-68
2022/01/30 08:48:17;;;;;;;5.40;3.20;;;7.60;99.90;;;;;;5056719;28;20211;-68
2022/01/30 08:50:45;;;;;;;11.85;4.80;;;7.50;99.90;;;;;;5055656;28;20687;-68
2022/01/30 08:53:12;;;;;;;6.88;3.55;;;7.50;99.90;;;;;;5055664;28;20199;-68
2022/01/30 08:55:39;;;;;;;8.98;4.10;;;7.50;99.90;;;;;;5055761;28;20220;-68
2022/01/30 08:58:09;;;;;;;11.00;3.53;;;7.40;99.90;;;;;;5055671;28;20272;-68
2022/01/30 09:00:37;;;;;;;8.25;4.00;;;7.40;99.90;;;;;;5055119;28;20203;-68
2022/01/30 09:03:04;;;;;;;8.35;4.15;;;7.30;99.90;;;;;;5055173;28;20290;-68
2022/01/30 09:05:32;;;;;;;11.13;5.13;;;7.20;99.90;;;;;;5055423;28;20224;-68
2022/01/30 09:07:59;;;;;;;7.28;4.28;;;7.30;99.90;;;;;;5055420;28;20211;-68
2022/01/30 09:10:27;;;;;;;8.85;4.10;;;7.30;99.90;;;;;;5054804;28;20569;-68
2022/01/30 09:12:53;;;;;;;8.18;4.68;;;7.30;99.90;;;;;;5055431;28;20234;-68
2022/01/30 09:15:22;;;;;;;7.53;3.80;;;7.30;99.90;;;;;;5054705;28;20228;-68
2022/01/30 09:17:49;;;;;;;7.45;3.63;;;7.40;99.90;;;;;;5054979;28;20211;-68
2022/01/30 09:20:16;;;;;;;6.75;3.90;;;7.40;99.90;;;;;;5054806;28;20218;-68
2022/01/30 09:22:44;;;;;;;7.05;3.70;;;7.40;99.90;;;;;;5054874;28;20680;-68
2022/01/30 09:25:11;;;;;;;8.00;3.47;;;7.30;99.90;;;;;;5054386;28;20224;-68
2022/01/30 09:27:38;;;;;;;10.63;4.57;;;7.40;99.90;;;;;;5055287;28;20210;-68
2022/01/30 09:30:07;;;;;;;9.57;4.05;;;7.30;99.90;;;;;;5054317;28;20671;-68
2022/01/30 09:32:35;;;;;;;10.13;4.50;;;7.30;99.90;;;;;;5054929;28;20210;-68
2022/01/30 09:35:02;;;;;;;8.02;3.92;;;7.40;99.90;;;;;;5059148;28;20217;-68
2022/01/30 09:37:29;;;;;;;6.25;4.30;;;7.50;99.90;;;;;;5061749;28;20270;-68
2022/01/30 09:39:56;;;;;;;6.40;3.35;;;7.60;99.90;;;;;;5054606;28;20227;-68
2022/01/30 09:42:24;;;;;;;8.70;4.45;;;7.60;99.90;;;;;;5054885;28;20203;-68
2022/01/30 09:44:52;;;;;;;6.85;4.05;;;7.60;99.90;;;;;;5054500;28;20227;-68
2022/01/30 09:47:19;;;;;;;8.00;3.90;;;7.60;99.90;;;;;;5054718;28;20204;-68
2022/01/30 09:49:49;;;;;;;10.38;5.20;;;7.60;99.90;;;;;;5054259;28;20298;-68
2022/01/30 09:52:17;;;;;;;7.88;4.32;;;7.70;99.90;;;;;;5054574;28;20290;-68
2022/01/30 09:54:44;;;;;;;6.80;4.13;;;7.80;99.90;;;;;;5054616;28;20551;-67
2022/01/30 09:57:11;;;;;;;6.88;3.72;;;7.80;99.90;;;;;;5054284;28;20207;-68
2022/01/30 09:59:38;;;;;;;11.18;5.25;;;7.90;99.90;;;;;;5053941;28;20214;-68
2022/01/30 10:02:06;;;;;;;10.55;4.22;;;7.80;99.90;;;;;;5054299;28;20246;-68
2022/01/30 10:04:33;;;;;;;11.07;4.18;;;7.80;99.90;;;;;;5054137;28;20231;-68
2022/01/30 10:07:10;;;;;;;7.03;3.75;;;7.70;99.90;;;;;;5054697;28;20206;-68
2022/01/30 10:09:43;;;;;;;8.73;4.93;;;7.80;99.90;;;;;;5054326;28;20205;-68
2022/01/30 10:12:15;;;;;;;7.63;5.22;;;7.80;99.90;;;;;;5054224;28;20207;-68
2022/01/30 10:15:05;;;;;;;7.70;4.15;;;7.90;99.90;;;;;;5054138;28;20251;-68
2022/01/30 10:17:34;;;;;;;9.05;4.97;;;7.90;99.90;;;;;;5050931;28;20294;-68
2022/01/30 10:20:07;;;;;;;7.47;4.65;;;8.00;99.90;;;;;;5053672;28;20208;-68
2022/01/30 10:22:37;;;;;;;8.10;4.93;;;8.10;99.90;;;;;;5054135;28;20218;-68
2022/01/30 10:25:04;;;;;;;8.60;5.00;;;8.10;99.90;;;;;;5053922;28;20314;-68
2022/01/30 10:27:33;;;;;;;9.82;4.80;;;8.20;99.90;;;;;;5054298;28;20546;-68
2022/01/30 10:30:02;;;;;;;7.35;4.15;;;8.10;99.90;;;;;;5053469;28;20261;-67
2022/01/30 10:32:29;;;;;;;8.85;4.20;;;8.10;99.90;;;;;;5054382;28;20203;-68
2022/01/30 10:35:01;;;;;;;5.15;2.88;;;8.00;99.90;;;;;;5053924;28;20223;-68
2022/01/30 10:37:28;;;;;;;9.38;4.30;;;7.70;99.90;;;;;;5054054;28;20294;-68
2022/01/30 10:40:04;;;;;;;4.93;2.90;;;7.70;99.90;;;;;;5053771;28;20206;-68
2022/01/30 10:42:33;;;;;;;4.70;3.20;;;7.60;99.90;;;;;;5053987;28;20210;-68
2022/01/30 10:45:00;;;;;;;5.55;2.85;;;7.50;99.90;;;;;;5053452;28;20327;-68
2022/01/30 10:47:29;;;;;;;8.68;3.40;;;7.50;99.90;;;;;;5057674;28;20206;-68
2022/01/30 10:49:57;;;;;;;6.10;3.05;;;7.50;99.90;;;;;;5057762;28;20213;-68
2022/01/30 10:52:24;;;;;;;3.97;2.05;;;7.60;99.90;;;;;;5058058;28;20203;-68
2022/01/30 10:54:51;;;;;;;5.28;3.20;;;7.60;99.90;;;;;;5060766;28;20581;-68
2022/01/30 10:57:19;;;;;;;8.80;4.15;;;7.60;99.90;;;;;;5057066;28;20621;-68
2022/01/30 10:59:53;;;;;;;6.70;2.67;;;7.80;99.90;;;;;;5056807;28;20207;-68
2022/01/30 11:02:23;;;;;;;5.53;2.60;;;7.90;99.90;;;;;;5065035;28;20206;-68
2022/01/30 11:04:50;;;;;;;6.13;2.83;;;7.80;99.90;;;;;;5076314;28;20275;-70
2022/01/30 11:07:20;;;;;;;7.82;2.58;;;7.90;99.90;;;;;;5076518;28;20205;-68
2022/01/30 11:09:58;;;;;;;6.18;3.20;;;7.80;99.90;;;;;;5076298;28;20739;-68
2022/01/30 11:12:34;;;;;;;7.03;3.20;;;7.80;99.90;;;;;;5076558;28;20202;-68
2022/01/30 11:15:16;;;;;;;7.45;3.03;;;7.90;99.90;;;;;;5076102;28;20275;-68
2022/01/30 11:17:44;;;;;;;8.05;3.10;;;8.10;99.90;;;;;;5076165;28;20886;-67
2022/01/30 11:20:13;;;;;;;6.18;2.90;;;8.10;99.90;;;;;;5075956;28;20203;-66
2022/01/30 11:22:45;;;;;;;8.38;3.95;;;8.20;99.90;;;;;;5075707;28;20206;-67
2022/01/30 11:25:13;;;;;;;5.75;2.75;;;8.30;99.90;;;;;;5075494;28;20233;-66
2022/01/30 11:27:45;;;;;;;7.13;3.03;;;8.20;99.90;;;;;;5075558;28;20203;-66
2022/01/30 11:30:15;;;;;;;7.38;3.42;;;8.40;99.90;;;;;;5075533;28;20268;-66
2022/01/30 11:32:42;;;;;;;6.75;3.15;;;8.50;99.90;;;;;;5075205;28;20214;-66
2022/01/30 11:35:10;;;;;;;8.98;3.70;;;8.50;99.80;;;;;;5075126;28;20306;-66
2022/01/30 11:37:38;;;;;;;10.20;4.25;;;8.50;99.90;;;;;;5075463;28;20213;-66
2022/01/30 11:40:13;;;;;;;10.45;4.57;;;8.50;99.90;;;;;;5075431;28;20199;-66
2022/01/30 11:42:45;;;;;;;6.45;3.42;;;8.50;99.90;;;;;;5075418;28;20213;-66
2022/01/30 11:45:16;;;;;;;7.50;3.40;;;8.50;99.90;;;;;;5074800;28;20315;-67
2022/01/30 11:47:48;;;;;;;6.97;3.58;;;8.70;99.90;;;;;;5075123;28;20546;-67
2022/01/30 11:50:19;;;;;;;8.02;3.55;;;8.60;98.30;;;;;;5075079;28;20204;-68
2022/01/30 11:52:57;;;;;;;10.63;5.20;;;8.60;98.50;;;;;;5075294;28;20206;-68
2022/01/30 11:55:53;;;;;;;5.95;3.25;;;8.40;98.40;;;;;;5074597;28;20226;-68
2022/01/30 11:58:46;;;;;;;8.85;2.95;;;8.40;98.70;;;;;;5074226;28;20623;-68
2022/01/30 12:01:37;;;;;;;8.27;3.45;;;8.30;97.90;;;;;;5074677;28;20207;-68
2022/01/30 12:04:12;;;;;;;6.65;3.30;;;8.20;98.10;;;;;;5074234;28;20314;-68
2022/01/30 12:06:41;;;;;;;6.00;3.30;;;8.30;98.20;;;;;;5074542;28;20210;-66
2022/01/30 12:09:29;;;;;;;7.03;3.90;;;8.40;98.40;;;;;;5074785;28;20632;-67
2022/01/30 12:12:07;;;;;;;7.63;3.75;;;8.40;98.10;;;;;;5074806;28;20264;-67
2022/01/30 12:15:02;;;;;;;7.57;3.75;;;8.40;97.50;;;;;;5074227;28;20811;-67
2022/01/30 12:17:50;;;;;;;6.45;3.40;;;8.60;97.70;;;;;;5074747;28;20596;-67
2022/01/30 12:20:17;;;;;;;5.00;3.13;;;8.80;97.40;;;;;;5074915;28;20203;-67
2022/01/30 12:22:44;;;;;;;6.47;3.20;;;8.90;97.00;;;;;;5074699;28;20553;-67
2022/01/30 12:25:39;;;;;;;6.63;4.00;;;8.90;96.70;;;;;;5074116;28;20233;-67
2022/01/30 12:28:14;;;;;;;11.05;3.30;;;8.80;96.80;;;;;;5074198;28;20246;-67
2022/01/30 12:30:53;;;;;;;6.47;3.90;;;8.80;96.60;;;;;;5074168;28;20209;-67
2022/01/30 12:33:46;;;;;;;7.32;3.90;;;8.40;97.00;;;;;;5074117;28;20206;-67
2022/01/30 12:36:23;;;;;;;8.60;3.72;;;8.50;97.40;;;;;;5074677;28;20195;-67
2022/01/30 12:39:05;;;;;;;7.85;3.13;;;8.60;97.50;;;;;;5074872;28;20202;-67
2022/01/30 12:41:33;;;;;;;11.02;3.75;;;8.60;96.70;;;;;;5073865;28;20202;-66
2022/01/30 12:44:03;;;;;;;6.20;3.42;;;8.70;96.30;;;;;;5073854;28;20227;-67
2022/01/30 12:46:35;;;;;;;7.45;3.40;;;8.90;95.60;;;;;;5074262;28;20617;-67
2022/01/30 12:49:13;;;;;;;6.20;3.17;;;9.30;95.20;;;;;;5074076;28;20225;-67
2022/01/30 12:51:43;;;;;;;5.15;2.95;;;10.00;94.20;;;;;;5074153;28;20198;-67
2022/01/30 12:54:11;;;;;;;7.82;3.55;;;10.80;91.60;;;;;;5073747;28;20219;-67
2022/01/30 12:56:38;;;;;;;10.30;3.28;;;11.10;90.90;;;;;;5074048;28;20206;-68
2022/01/30 12:59:07;;;;;;;6.15;3.20;;;11.30;91.10;;;;;;5073949;28;20206;-68
2022/01/30 13:01:37;;;;;;;6.05;2.90;;;11.40;87.80;;;;;;5073723;28;20238;-68
2022/01/30 13:04:07;;;;;;;7.07;3.10;;;11.40;86.50;;;;;;5073721;28;20700;-68
2022/01/30 13:06:37;;;;;;;7.65;3.35;;;11.00;84.50;;;;;;5073261;28;20229;-68
2022/01/30 13:09:05;;;;;;;3.58;2.78;;;10.80;86.10;;;;;;5072315;28;20206;-68
2022/01/30 13:11:33;;;;;;;7.35;3.53;;;10.60;86.70;;;;;;5073003;28;20207;-68
2022/01/30 13:14:03;;;;;;;6.75;2.95;;;10.50;88.50;;;;;;5073320;28;20238;-67
2022/01/30 13:16:33;;;;;;;5.85;2.90;;;10.40;88.30;;;;;;5073040;28;20199;-67
2022/01/30 13:19:02;;;;;;;6.25;3.05;;;10.10;89.60;;;;;;5072830;28;20648;-66
2022/01/30 13:21:31;;;;;;;4.93;2.78;;;9.60;90.80;;;;;;5072506;28;20213;-66
2022/01/30 13:23:59;;;;;;;8.40;3.10;;;9.80;91.50;;;;;;5072862;28;20309;-66
2022/01/30 13:26:34;;;;;;;4.80;2.95;;;10.00;89.30;;;;;;5072958;28;20227;-67
2022/01/30 13:29:02;;;;;;;6.82;3.08;;;10.10;88.70;;;;;;5073014;28;20663;-66
2022/01/30 13:31:31;;;;;;;6.60;3.83;;;9.70;89.40;;;;;;5072517;28;20199;-67
2022/01/30 13:34:21;;;;;;;6.10;2.83;;;9.50;90.30;;;;;;5072827;28;20727;-67
2022/01/30 13:36:54;;;;;;;6.60;3.20;;;9.30;90.40;;;;;;5072760;28;20293;-67
2022/01/30 13:39:27;;;;;;;9.73;4.20;;;9.00;90.40;;;;;;5072515;28;20207;-66
2022/01/30 13:42:14;;;;;;;5.18;2.53;;;8.60;91.30;;;;;;5072060;28;20673;-67